createdAt,value
2022-12-10T00:00:23.137Z,37.38
2022-12-10T00:05:25.739Z,32.75
2022-12-10T00:10:28.367Z,32.42
2022-12-10T00:15:30.803Z,30.20
2022-12-10T00:20:33.385Z,32.22
2022-12-10T00:25:35.946Z,31.65
2022-12-10T00:30:39.000Z,32.33
2022-12-10T00:35:41.639Z,33.88
2022-12-10T00:40:45.320Z,32.72
2022-12-10T00:45:47.913Z,32.38
2022-12-10T00:51:00.902Z,37.53
2022-12-10T00:56:04.710Z,38.30
2022-12-10T01:01:29.543Z,33.70
2022-12-10T01:06:38.243Z,34.60
2022-12-10T01:11:42.650Z,31.48
2022-12-10T01:16:46.338Z,32.45
2022-12-10T01:21:54.031Z,32.15
2022-12-10T01:26:57.824Z,35.63
2022-12-10T01:32:00.882Z,36.25
2022-12-10T01:37:03.558Z,33.08
2022-12-10T01:42:12.764Z,30.48
2022-12-10T01:47:15.519Z,31.75
2022-12-10T01:52:20.613Z,30.58
2022-12-10T01:57:27.973Z,32.47
2022-12-10T02:02:35.946Z,34.13
2022-12-10T02:07:50.892Z,32.10
2022-12-10T02:13:11.919Z,38.28
2022-12-10T02:18:22.693Z,34.15
2022-12-10T02:23:35.483Z,38.65
2022-12-10T02:28:52.708Z,36.42
2022-12-10T02:34:00.120Z,38.55
2022-12-10T02:39:05.700Z,38.40
2022-12-10T02:44:12.786Z,37.28
2022-12-10T02:49:16.982Z,39.50
2022-12-10T02:54:42.786Z,36.88
2022-12-10T03:00:08.536Z,38.25
2022-12-10T03:05:45.397Z,34.00
2022-12-10T03:10:56.863Z,31.73
2022-12-10T03:16:00.822Z,31.73
2022-12-10T03:21:06.431Z,36.55
2022-12-10T03:26:09.514Z,35.88
2022-12-10T03:31:15.279Z,34.03
2022-12-10T03:36:20.673Z,38.60
2022-12-10T03:41:23.370Z,34.97
2022-12-10T03:46:28.325Z,37.70
2022-12-10T03:51:31.016Z,35.47
2022-12-10T03:56:33.535Z,36.63
2022-12-10T04:01:36.174Z,35.55
2022-12-10T04:06:40.510Z,40.40
2022-12-10T04:11:44.051Z,39.08
2022-12-10T04:16:46.653Z,40.95
2022-12-10T04:22:08.695Z,42.95
2022-12-10T04:32:20.885Z,35.72
2022-12-10T04:37:24.689Z,34.25
2022-12-10T04:42:27.226Z,41.38
2022-12-10T04:47:29.779Z,41.03
2022-12-10T04:52:32.336Z,40.25
2022-12-10T04:57:34.912Z,40.65
2022-12-10T05:02:38.899Z,39.38
2022-12-10T05:07:41.430Z,38.75
2022-12-10T05:12:43.948Z,36.55
2022-12-10T05:17:46.459Z,39.33
2022-12-10T05:23:07.682Z,43.30
2022-12-10T05:28:10.958Z,32.90
2022-12-10T05:33:13.743Z,47.88
2022-12-10T05:38:16.585Z,51.15
2022-12-10T05:43:19.403Z,46.35
2022-12-10T05:48:21.887Z,44.55
2022-12-10T05:53:25.194Z,50.58
2022-12-10T05:58:30.034Z,60.40
2022-12-10T06:03:32.623Z,62.95
2022-12-10T06:08:36.697Z,45.47
2022-12-10T06:13:39.221Z,51.10
2022-12-10T06:18:42.249Z,56.83
2022-12-10T06:23:45.986Z,50.45
2022-12-10T06:28:49.084Z,54.33
2022-12-10T06:33:53.606Z,58.38
2022-12-10T06:38:56.846Z,61.17
2022-12-10T06:43:59.693Z,67.25
2022-12-10T06:49:02.217Z,74.88
2022-12-10T06:54:05.926Z,61.50
2022-12-10T06:59:08.540Z,65.70
2022-12-10T07:04:11.337Z,67.55
2022-12-10T07:09:13.931Z,60.75
2022-12-10T07:14:17.873Z,57.75
2022-12-10T07:19:20.499Z,60.78
2022-12-10T07:24:23.062Z,58.88
2022-12-10T07:29:27.588Z,64.13
2022-12-10T07:34:30.226Z,55.45
2022-12-10T07:39:33.646Z,60.65
2022-12-10T07:44:36.194Z,63.72
2022-12-10T07:49:38.795Z,68.32
2022-12-10T07:54:41.345Z,57.03
2022-12-10T07:59:43.942Z,51.22
2022-12-10T08:04:46.511Z,56.15
2022-12-10T08:09:49.136Z,59.95
2022-12-10T08:14:51.691Z,80.75
2022-12-10T08:19:55.897Z,69.13
2022-12-10T08:24:58.569Z,67.32
2022-12-10T08:30:01.053Z,52.80
2022-12-10T08:35:03.949Z,62.90
2022-12-10T08:40:08.313Z,59.35
2022-12-10T08:45:11.107Z,63.33
2022-12-10T08:50:13.578Z,67.32
2022-12-10T08:55:16.810Z,68.63
2022-12-10T09:00:19.920Z,68.40
2022-12-10T09:05:22.458Z,75.85
2022-12-10T09:10:25.182Z,82.07
2022-12-10T09:15:27.646Z,93.53
2022-12-10T09:20:30.196Z,85.30
2022-12-10T09:25:32.701Z,78.78
2022-12-10T09:30:35.381Z,86.15
2022-12-10T09:35:41.614Z,77.35
2022-12-10T09:41:15.222Z,82.78
2022-12-10T09:46:35.840Z,80.13
2022-12-10T09:51:39.141Z,71.50
2022-12-10T09:56:44.697Z,76.60
2022-12-10T10:01:52.209Z,94.22
2022-12-10T10:06:54.927Z,68.43
2022-12-10T10:11:57.598Z,91.53
2022-12-10T10:17:08.680Z,93.28
2022-12-10T10:22:11.904Z,66.87
2022-12-10T10:27:27.543Z,80.72
2022-12-10T10:32:49.846Z,76.90
2022-12-10T10:37:58.496Z,83.45
2022-12-10T10:43:02.471Z,82.88
2022-12-10T10:48:13.452Z,79.32
2022-12-10T10:53:30.497Z,87.53
2022-12-10T10:58:35.089Z,98.32
2022-12-10T11:03:38.203Z,88.20
2022-12-10T11:08:43.258Z,91.88
2022-12-10T11:13:46.083Z,102.82
2022-12-10T11:19:02.994Z,98.13
2022-12-10T11:24:12.843Z,93.10
2022-12-10T11:29:41.027Z,89.53
2022-12-10T11:34:58.752Z,84.40
2022-12-10T11:40:12.197Z,91.28
2022-12-10T11:45:23.921Z,118.53
2022-12-10T11:50:30.124Z,109.17
2022-12-10T11:55:56.633Z,106.65
2022-12-10T12:01:37.074Z,99.10
2022-12-10T12:07:30.756Z,91.35
2022-12-10T12:12:35.938Z,90.68
2022-12-10T12:17:44.535Z,89.55
2022-12-10T12:22:55.176Z,78.75
2022-12-10T12:28:37.553Z,93.05
2022-12-10T12:34:18.621Z,84.32
2022-12-10T12:39:44.739Z,98.43
2022-12-10T12:45:02.502Z,76.25
2022-12-10T12:50:35.258Z,71.18
2022-12-10T12:55:55.807Z,83.43
2022-12-10T13:01:07.643Z,64.57
2022-12-10T13:06:24.895Z,59.70
2022-12-10T13:11:32.035Z,61.10
2022-12-10T13:17:02.193Z,60.50
2022-12-10T13:22:11.307Z,61.67
2022-12-10T13:27:18.230Z,63.63
2022-12-10T13:32:30.997Z,61.50
2022-12-10T13:37:33.671Z,61.65
2022-12-10T13:42:56.916Z,58.20
2022-12-10T13:48:20.984Z,62.28
2022-12-10T13:53:38.119Z,57.63
2022-12-10T13:58:46.740Z,57.33
2022-12-10T14:03:51.842Z,54.10
2022-12-10T14:09:14.766Z,57.53
2022-12-10T14:14:41.062Z,55.53
2022-12-10T14:19:46.876Z,57.80
2022-12-10T14:24:51.474Z,62.22
2022-12-10T14:30:15.385Z,54.53
2022-12-10T14:35:25.621Z,58.45
2022-12-10T14:40:38.817Z,55.60
2022-12-10T14:45:56.654Z,57.63
2022-12-10T14:51:11.632Z,56.35
2022-12-10T14:56:23.706Z,59.92
2022-12-10T15:01:42.303Z,56.85
2022-12-10T15:06:46.435Z,57.50
2022-12-10T15:12:01.413Z,53.08
2022-12-10T15:17:04.246Z,57.20
2022-12-10T15:22:16.189Z,50.88
2022-12-10T15:32:28.436Z,49.30
2022-12-10T15:37:35.652Z,50.95
2022-12-10T15:42:41.035Z,48.83
2022-12-10T15:47:44.917Z,44.78
2022-12-10T15:52:47.555Z,47.72
2022-12-10T15:57:50.856Z,49.10
2022-12-10T16:03:03.778Z,47.03
2022-12-10T16:08:26.302Z,49.78
2022-12-10T16:13:37.872Z,46.42
2022-12-10T16:18:40.518Z,53.75
2022-12-10T16:23:43.423Z,47.67
2022-12-10T16:28:46.771Z,48.92
2022-12-10T16:33:52.799Z,50.10
2022-12-10T16:38:55.540Z,51.10
2022-12-10T16:43:58.415Z,44.60
2022-12-10T16:49:01.021Z,44.35
2022-12-10T16:54:04.727Z,45.05
2022-12-10T16:59:07.357Z,49.45
2022-12-10T17:04:10.864Z,49.35
2022-12-10T17:09:13.463Z,43.22
2022-12-10T17:14:22.648Z,51.92
2022-12-10T17:19:29.824Z,44.80
2022-12-10T17:24:32.932Z,42.38
2022-12-10T17:29:41.859Z,45.72
2022-12-10T17:34:44.473Z,40.13
2022-12-10T17:39:47.881Z,44.35
2022-12-10T17:44:50.477Z,45.15
2022-12-10T17:49:53.195Z,35.70
2022-12-10T17:54:55.846Z,38.72
2022-12-10T17:59:58.445Z,42.35
2022-12-10T18:05:00.958Z,37.88
2022-12-10T18:10:13.390Z,34.55
2022-12-10T18:15:21.194Z,38.17
2022-12-10T18:20:26.140Z,37.53
2022-12-10T18:25:29.602Z,37.45
2022-12-10T18:30:32.329Z,38.72
2022-12-10T18:35:35.494Z,36.90
2022-12-10T18:40:38.622Z,38.45
2022-12-10T18:45:41.306Z,34.20
2022-12-10T18:50:44.451Z,34.08
2022-12-10T18:55:47.581Z,31.50
2022-12-10T19:00:50.826Z,35.40
2022-12-10T19:05:53.664Z,32.40
2022-12-10T19:10:57.696Z,31.13
2022-12-10T19:16:02.798Z,34.10
2022-12-10T19:21:06.668Z,29.23
2022-12-10T19:26:26.029Z,28.95
2022-12-10T19:31:29.063Z,28.35
2022-12-10T19:36:31.748Z,27.80
2022-12-10T19:41:34.257Z,25.08
2022-12-10T19:46:36.980Z,27.02
2022-12-10T19:51:39.722Z,26.10
2022-12-10T19:56:43.127Z,25.90
2022-12-10T20:01:46.530Z,23.80
2022-12-10T20:06:49.822Z,26.15
2022-12-10T20:11:52.991Z,27.35
2022-12-10T20:16:56.431Z,26.33
2022-12-10T20:21:59.022Z,24.75
2022-12-10T20:27:01.676Z,23.80
2022-12-10T20:32:04.575Z,25.00
2022-12-10T20:37:07.569Z,22.30
2022-12-10T20:42:10.104Z,21.80
2022-12-10T20:47:12.861Z,17.75
2022-12-10T20:52:15.416Z,22.13
2022-12-10T20:57:18.006Z,18.85
2022-12-10T21:02:20.637Z,19.73
2022-12-10T21:07:23.805Z,18.90
2022-12-10T21:12:26.454Z,18.15
2022-12-10T21:17:29.616Z,16.98
2022-12-10T21:22:33.282Z,19.67
2022-12-10T21:27:36.571Z,15.23
2022-12-10T21:32:39.313Z,18.60
2022-12-10T21:37:41.972Z,14.73
2022-12-10T21:43:03.154Z,16.25
2022-12-10T21:48:05.989Z,21.17
2022-12-10T21:53:09.410Z,16.27
2022-12-10T21:58:12.530Z,14.65
2022-12-10T22:03:15.151Z,17.98
2022-12-10T22:08:17.931Z,17.85
2022-12-10T22:13:20.463Z,70.00
2022-12-10T22:18:23.688Z,20.88
2022-12-10T22:23:27.462Z,18.52
2022-12-10T22:28:30.641Z,20.95
2022-12-10T22:33:33.518Z,17.45
2022-12-10T22:38:37.052Z,18.38
2022-12-10T22:43:54.779Z,16.85
2022-12-10T22:48:57.503Z,19.17
2022-12-10T22:54:01.179Z,17.38
2022-12-10T22:59:05.408Z,18.17
2022-12-10T23:04:09.166Z,19.00
2022-12-10T23:09:11.732Z,22.65
2022-12-10T23:14:14.220Z,18.02
2022-12-10T23:19:16.747Z,22.20
2022-12-10T23:24:19.640Z,21.95
2022-12-10T23:29:22.865Z,23.60
2022-12-10T23:34:25.400Z,20.75
2022-12-10T23:39:27.893Z,17.65
2022-12-10T23:44:30.484Z,21.15
2022-12-10T23:49:33.070Z,20.10
2022-12-10T23:54:35.675Z,20.50
2022-12-10T23:59:38.410Z,19.77
